Allentown, Illinois
Current Conditions -  °F | °C
As of 11:54 AM on Thursday 23 Oct 2014 (Local Time) from KPIA Reporting Station
Clear Clear  
Wind Chill: 54°   Ceiling: Unl
Heat Index: 54°   Visibility: 10mi
Dew Point: 43°   Wind: 13mph
Humidity: 66%   Direction: 190°S
Pressure: 30.19"   Gusts: NA
Location:  40.4817°N, 89.4923°W
Report Text: KPIA 231654Z 19011KT 10SM CLR 12/06 A3019 RMK AO2 SLP225 T01220061
Loading
Personal Weather Stations






























Interactive Weather Map
Tropical Storm Tracking
New forecast layout! Learn more

10-Day Weather Forecast

Advertisements
Track Severe Weather on mobile